sensor_id;sensor_type;location;lat;lon;timestamp;P1;durP1;ratioP1;P2;durP2;ratioP2
15500;SDS011;7852;52.228;5.990;2023-08-08T00:04:12;8.5;;;7.7;;
15500;SDS011;7852;52.228;5.990;2023-08-08T00:04:40;11.8;;;8.6;;
15500;SDS011;7852;52.228;5.990;2023-08-08T00:05:40;9.1;;;8.3;;
15500;SDS011;7852;52.228;5.990;2023-08-08T00:06:40;8.4;;;7.7;;
15500;SDS011;7852;52.228;5.990;2023-08-08T00:07:40;9.2;;;8.2;;
15500;SDS011;7852;52.228;5.990;2023-08-08T00:08:40;9;;;8.1;;
15500;SDS011;7852;52.228;5.990;2023-08-08T00:09:40;9;;;7.8;;
15500;SDS011;7852;52.228;5.990;2023-08-08T00:10:40;8.8;;;8;;
15500;SDS011;7852;52.228;5.990;2023-08-08T00:11:40;9.7;;;8.5;;
15500;SDS011;7852;52.228;5.990;2023-08-08T00:12:40;8.8;;;8.2;;
15500;SDS011;7852;52.228;5.990;2023-08-08T00:13:40;9.5;;;8.6;;
15500;SDS011;7852;52.228;5.990;2023-08-08T00:14:40;9.7;;;8.7;;
15500;SDS011;7852;52.228;5.990;2023-08-08T00:16:41;10.1;;;9.2;;
15500;SDS011;7852;52.228;5.990;2023-08-08T00:17:40;10.1;;;8.8;;
15500;SDS011;7852;52.228;5.990;2023-08-08T00:23:40;12.5;;;10.1;;
15500;SDS011;7852;52.228;5.990;2023-08-08T00:24:40;12;;;10.8;;
15500;SDS011;7852;52.228;5.990;2023-08-08T00:25:40;11.2;;;10.2;;
15500;SDS011;7852;52.228;5.990;2023-08-08T00:26:40;12;;;10.8;;
15500;SDS011;7852;52.228;5.990;2023-08-08T00:27:40;12;;;10.9;;
15500;SDS011;7852;52.228;5.990;2023-08-08T00:28:40;12.3;;;10.8;;
15500;SDS011;7852;52.228;5.990;2023-08-08T00:29:40;12.3;;;11;;
15500;SDS011;7852;52.228;5.990;2023-08-08T00:30:40;11.8;;;10.6;;
15500;SDS011;7852;52.228;5.990;2023-08-08T00:31:40;12.8;;;11.3;;
15500;SDS011;7852;52.228;5.990;2023-08-08T00:32:40;13.2;;;12;;
15500;SDS011;7852;52.228;5.990;2023-08-08T00:33:40;12.9;;;11.7;;
15500;SDS011;7852;52.228;5.990;2023-08-08T00:34:40;13.2;;;11.5;;
15500;SDS011;7852;52.228;5.990;2023-08-08T00:35:40;13.5;;;11.8;;
15500;SDS011;7852;52.228;5.990;2023-08-08T00:36:40;13.1;;;12;;
15500;SDS011;7852;52.228;5.990;2023-08-08T00:37:40;13.2;;;11.1;;
15500;SDS011;7852;52.228;5.990;2023-08-08T00:38:40;14.4;;;12.2;;
15500;SDS011;7852;52.228;5.990;2023-08-08T00:39:40;16.2;;;11.9;;
15500;SDS011;7852;52.228;5.990;2023-08-08T00:40:40;13.8;;;11.4;;
15500;SDS011;7852;52.228;5.990;2023-08-08T00:41:40;12.8;;;11.6;;
15500;SDS011;7852;52.228;5.990;2023-08-08T00:42:40;11.9;;;10.7;;
15500;SDS011;7852;52.228;5.990;2023-08-08T00:43:40;14;;;11.2;;
15500;SDS011;7852;52.228;5.990;2023-08-08T00:44:40;12.7;;;11.5;;
15500;SDS011;7852;52.228;5.990;2023-08-08T00:45:40;11.8;;;10.7;;
15500;SDS011;7852;52.228;5.990;2023-08-08T00:46:40;13.6;;;10.8;;
15500;SDS011;7852;52.228;5.990;2023-08-08T00:47:40;12.4;;;10.5;;
15500;SDS011;7852;52.228;5.990;2023-08-08T00:48:40;16.1;;;10.7;;
15500;SDS011;7852;52.228;5.990;2023-08-08T00:49:40;12.5;;;11;;
15500;SDS011;7852;52.228;5.990;2023-08-08T00:50:41;12.7;;;10.9;;
15500;SDS011;7852;52.228;5.990;2023-08-08T00:51:40;12.4;;;10.1;;
15500;SDS011;7852;52.228;5.990;2023-08-08T00:52:40;12.6;;;10.5;;
15500;SDS011;7852;52.228;5.990;2023-08-08T00:53:40;14.3;;;10.7;;
15500;SDS011;7852;52.228;5.990;2023-08-08T00:54:40;14.3;;;10.5;;
15500;SDS011;7852;52.228;5.990;2023-08-08T00:55:40;13.3;;;10.3;;
15500;SDS011;7852;52.228;5.990;2023-08-08T00:56:40;12.7;;;10.3;;
15500;SDS011;7852;52.228;5.990;2023-08-08T00:57:40;12.4;;;10.1;;
15500;SDS011;7852;52.228;5.990;2023-08-08T00:58:40;12.7;;;10.4;;
15500;SDS011;7852;52.228;5.990;2023-08-08T00:59:40;13;;;10.5;;
15500;SDS011;7852;52.228;5.990;2023-08-08T02:48:40;13.1;;;9.7;;
15500;SDS011;7852;52.228;5.990;2023-08-08T03:00:40;13.5;;;9.3;;
15500;SDS011;7852;52.228;5.990;2023-08-08T03:01:40;11.7;;;10.4;;
15500;SDS011;7852;52.228;5.990;2023-08-08T03:18:40;12.3;;;10.1;;
15500;SDS011;7852;52.228;5.990;2023-08-08T04:14:41;10.2;;;8;;
15500;SDS011;7852;52.228;5.990;2023-08-08T04:16:41;8.5;;;7.7;;
15500;SDS011;7852;52.228;5.990;2023-08-08T04:28:41;10.7;;;9.6;;
15500;SDS011;7852;52.228;5.990;2023-08-08T04:37:41;10.4;;;9.4;;
15500;SDS011;7852;52.228;5.990;2023-08-08T04:38:41;11.4;;;9.8;;
15500;SDS011;7852;52.228;5.990;2023-08-08T04:39:41;9.9;;;9;;
15500;SDS011;7852;52.228;5.990;2023-08-08T04:44:41;11.3;;;8.1;;
15500;SDS011;7852;52.228;5.990;2023-08-08T06:00:41;8.1;;;7.2;;
15500;SDS011;7852;52.228;5.990;2023-08-08T06:08:41;6.4;;;6;;
15500;SDS011;7852;52.228;5.990;2023-08-08T06:09:41;7.4;;;6.8;;
15500;SDS011;7852;52.228;5.990;2023-08-08T06:33:41;5.4;;;5;;
15500;SDS011;7852;52.228;5.990;2023-08-08T06:35:41;5.5;;;5.2;;
15500;SDS011;7852;52.228;5.990;2023-08-08T06:42:42;6.1;;;5.6;;
15500;SDS011;7852;52.228;5.990;2023-08-08T06:47:42;5.6;;;5.3;;
15500;SDS011;7852;52.228;5.990;2023-08-08T06:49:42;5.4;;;5;;
15500;SDS011;7852;52.228;5.990;2023-08-08T06:51:42;5.2;;;4.9;;
15500;SDS011;7852;52.228;5.990;2023-08-08T06:57:42;7.6;;;6.4;;
15500;SDS011;7852;52.228;5.990;2023-08-08T07:08:42;5.2;;;4.9;;
15500;SDS011;7852;52.228;5.990;2023-08-08T07:09:42;5.1;;;4.9;;
15500;SDS011;7852;52.228;5.990;2023-08-08T07:14:42;7.3;;;6.7;;
15500;SDS011;7852;52.228;5.990;2023-08-08T07:15:42;6.8;;;6.4;;
15500;SDS011;7852;52.228;5.990;2023-08-08T07:16:42;6;;;5.4;;
15500;SDS011;7852;52.228;5.990;2023-08-08T07:17:42;5.4;;;5.1;;
15500;SDS011;7852;52.228;5.990;2023-08-08T07:18:42;5.8;;;5.4;;
15500;SDS011;7852;52.228;5.990;2023-08-08T07:19:42;7.5;;;6.8;;
15500;SDS011;7852;52.228;5.990;2023-08-08T07:20:42;4.8;;;4.6;;
15500;SDS011;7852;52.228;5.990;2023-08-08T07:21:42;5.9;;;5.3;;
15500;SDS011;7852;52.228;5.990;2023-08-08T07:22:42;6;;;5.5;;
15500;SDS011;7852;52.228;5.990;2023-08-08T07:24:42;7.1;;;6.3;;
15500;SDS011;7852;52.228;5.990;2023-08-08T07:27:42;6.9;;;6.4;;
15500;SDS011;7852;52.228;5.990;2023-08-08T07:28:42;6.5;;;6.2;;
15500;SDS011;7852;52.228;5.990;2023-08-08T07:30:42;6.4;;;6.1;;
15500;SDS011;7852;52.228;5.990;2023-08-08T07:31:42;7;;;6.6;;
15500;SDS011;7852;52.228;5.990;2023-08-08T07:32:42;6.1;;;5.9;;
15500;SDS011;7852;52.228;5.990;2023-08-08T07:33:42;6.4;;;6.1;;
15500;SDS011;7852;52.228;5.990;2023-08-08T07:34:42;5.4;;;5.2;;
15500;SDS011;7852;52.228;5.990;2023-08-08T07:35:42;7.1;;;5.5;;
15500;SDS011;7852;52.228;5.990;2023-08-08T07:36:42;5;;;4.7;;
15500;SDS011;7852;52.228;5.990;2023-08-08T07:37:42;7.2;;;6.8;;
15500;SDS011;7852;52.228;5.990;2023-08-08T07:38:42;6.7;;;6.4;;
15500;SDS011;7852;52.228;5.990;2023-08-08T07:39:42;7.1;;;6.5;;
15500;SDS011;7852;52.228;5.990;2023-08-08T07:40:42;7.4;;;7;;
15500;SDS011;7852;52.228;5.990;2023-08-08T07:41:42;7.2;;;6.7;;
15500;SDS011;7852;52.228;5.990;2023-08-08T07:42:42;7.3;;;7;;
15500;SDS011;7852;52.228;5.990;2023-08-08T07:43:42;7.3;;;6.9;;
15500;SDS011;7852;52.228;5.990;2023-08-08T07:44:42;7.8;;;7.3;;
15500;SDS011;7852;52.228;5.990;2023-08-08T07:45:42;7.2;;;6.9;;
15500;SDS011;7852;52.228;5.990;2023-08-08T07:46:42;8;;;7.3;;
15500;SDS011;7852;52.228;5.990;2023-08-08T07:47:42;7.7;;;7.2;;
15500;SDS011;7852;52.228;5.990;2023-08-08T07:48:42;8.8;;;8.3;;
15500;SDS011;7852;52.228;5.990;2023-08-08T07:49:42;8;;;7.5;;
15500;SDS011;7852;52.228;5.990;2023-08-08T07:50:42;7.1;;;6.9;;
15500;SDS011;7852;52.228;5.990;2023-08-08T07:51:42;7.5;;;7.1;;
15500;SDS011;7852;52.228;5.990;2023-08-08T07:52:42;7.3;;;6.9;;
15500;SDS011;7852;52.228;5.990;2023-08-08T07:53:43;7.1;;;6.8;;
15500;SDS011;7852;52.228;5.990;2023-08-08T07:54:42;6.6;;;6.1;;
15500;SDS011;7852;52.228;5.990;2023-08-08T07:55:42;6.1;;;5.7;;
15500;SDS011;7852;52.228;5.990;2023-08-08T07:56:54;7;;;6.5;;
15500;SDS011;7852;52.228;5.990;2023-08-08T07:57:42;7.7;;;7.3;;
15500;SDS011;7852;52.228;5.990;2023-08-08T07:58:46;6.9;;;6.6;;
15500;SDS011;7852;52.228;5.990;2023-08-08T07:59:44;7.1;;;6.6;;
15500;SDS011;7852;52.228;5.990;2023-08-08T08:00:48;7.1;;;6.8;;
15500;SDS011;7852;52.228;5.990;2023-08-08T08:01:48;6.9;;;6.4;;
15500;SDS011;7852;52.228;5.990;2023-08-08T08:02:48;7.2;;;6.7;;
15500;SDS011;7852;52.228;5.990;2023-08-08T08:03:48;7;;;6.8;;
15500;SDS011;7852;52.228;5.990;2023-08-08T08:04:48;6.9;;;6.4;;
15500;SDS011;7852;52.228;5.990;2023-08-08T08:05:48;6.4;;;6.2;;
15500;SDS011;7852;52.228;5.990;2023-08-08T08:06:48;6.9;;;6.6;;
15500;SDS011;7852;52.228;5.990;2023-08-08T08:07:48;6.5;;;6.1;;
15500;SDS011;7852;52.228;5.990;2023-08-08T08:08:48;6.4;;;6.1;;
15500;SDS011;7852;52.228;5.990;2023-08-08T08:09:49;7.4;;;7;;
15500;SDS011;7852;52.228;5.990;2023-08-08T08:10:49;6.8;;;6.5;;
15500;SDS011;7852;52.228;5.990;2023-08-08T08:11:49;5.7;;;5.5;;
15500;SDS011;7852;52.228;5.990;2023-08-08T08:12:49;7;;;6.5;;
15500;SDS011;7852;52.228;5.990;2023-08-08T08:13:49;7;;;6.7;;
15500;SDS011;7852;52.228;5.990;2023-08-08T08:14:49;6.1;;;5.8;;
15500;SDS011;7852;52.228;5.990;2023-08-08T08:15:49;5.6;;;5.4;;
15500;SDS011;7852;52.228;5.990;2023-08-08T08:16:49;6.2;;;5.9;;
15500;SDS011;7852;52.228;5.990;2023-08-08T08:17:49;6.7;;;6.2;;
15500;SDS011;7852;52.228;5.990;2023-08-08T08:18:49;6.2;;;5.8;;
15500;SDS011;7852;52.228;5.990;2023-08-08T08:19:49;6;;;5.5;;
15500;SDS011;7852;52.228;5.990;2023-08-08T08:20:49;6;;;5.7;;
15500;SDS011;7852;52.228;5.990;2023-08-08T08:21:49;7.1;;;6.5;;
15500;SDS011;7852;52.228;5.990;2023-08-08T08:22:50;6.5;;;6;;
15500;SDS011;7852;52.228;5.990;2023-08-08T08:23:49;5.6;;;5.3;;
15500;SDS011;7852;52.228;5.990;2023-08-08T08:24:49;5.6;;;5.3;;
15500;SDS011;7852;52.228;5.990;2023-08-08T08:25:49;5.7;;;5.4;;
15500;SDS011;7852;52.228;5.990;2023-08-08T08:26:49;6.1;;;5.6;;
15500;SDS011;7852;52.228;5.990;2023-08-08T08:27:49;6;;;5.7;;
15500;SDS011;7852;52.228;5.990;2023-08-08T08:28:49;5.4;;;5.2;;
15500;SDS011;7852;52.228;5.990;2023-08-08T08:29:49;5.4;;;5.2;;
15500;SDS011;7852;52.228;5.990;2023-08-08T08:30:49;5.4;;;5.2;;
15500;SDS011;7852;52.228;5.990;2023-08-08T08:31:49;5.8;;;5.5;;
15500;SDS011;7852;52.228;5.990;2023-08-08T08:32:49;5.8;;;5.6;;
15500;SDS011;7852;52.228;5.990;2023-08-08T08:33:49;5.8;;;5.5;;
15500;SDS011;7852;52.228;5.990;2023-08-08T08:34:49;5.5;;;5.3;;
15500;SDS011;7852;52.228;5.990;2023-08-08T08:35:49;6.5;;;6.2;;
15500;SDS011;7852;52.228;5.990;2023-08-08T08:36:49;5.3;;;5.1;;
15500;SDS011;7852;52.228;5.990;2023-08-08T08:37:49;6.6;;;5.9;;
15500;SDS011;7852;52.228;5.990;2023-08-08T08:38:49;6;;;5.7;;
15500;SDS011;7852;52.228;5.990;2023-08-08T08:39:49;5.7;;;5.4;;
15500;SDS011;7852;52.228;5.990;2023-08-08T08:40:49;5.6;;;5.4;;
15500;SDS011;7852;52.228;5.990;2023-08-08T08:41:49;5.7;;;5.4;;
15500;SDS011;7852;52.228;5.990;2023-08-08T08:42:54;6.1;;;5.8;;
15500;SDS011;7852;52.228;5.990;2023-08-08T08:43:54;5.5;;;5.3;;
15500;SDS011;7852;52.228;5.990;2023-08-08T08:44:54;5.8;;;5.4;;
15500;SDS011;7852;52.228;5.990;2023-08-08T08:45:54;5.8;;;5.4;;
15500;SDS011;7852;52.228;5.990;2023-08-08T08:46:54;5.5;;;5.3;;
15500;SDS011;7852;52.228;5.990;2023-08-08T08:47:54;6.3;;;6;;
15500;SDS011;7852;52.228;5.990;2023-08-08T08:48:54;5.9;;;5.5;;
15500;SDS011;7852;52.228;5.990;2023-08-08T08:49:54;5.7;;;5.4;;
15500;SDS011;7852;52.228;5.990;2023-08-08T08:50:54;6.1;;;5.9;;
15500;SDS011;7852;52.228;5.990;2023-08-08T08:51:54;6.6;;;6.2;;
15500;SDS011;7852;52.228;5.990;2023-08-08T08:52:54;6;;;5.8;;
15500;SDS011;7852;52.228;5.990;2023-08-08T08:53:54;7.2;;;7;;
15500;SDS011;7852;52.228;5.990;2023-08-08T08:54:54;6.6;;;6.2;;
15500;SDS011;7852;52.228;5.990;2023-08-08T08:55:54;6.6;;;6.1;;
15500;SDS011;7852;52.228;5.990;2023-08-08T08:56:54;6.6;;;6.4;;
15500;SDS011;7852;52.228;5.990;2023-08-08T08:57:54;6;;;5.8;;
15500;SDS011;7852;52.228;5.990;2023-08-08T08:58:54;6;;;5.8;;
15500;SDS011;7852;52.228;5.990;2023-08-08T08:59:54;5.3;;;5;;
15500;SDS011;7852;52.228;5.990;2023-08-08T09:00:54;5.4;;;4.9;;
15500;SDS011;7852;52.228;5.990;2023-08-08T09:01:54;5.2;;;4.8;;
15500;SDS011;7852;52.228;5.990;2023-08-08T09:02:54;5.1;;;4.7;;
15500;SDS011;7852;52.228;5.990;2023-08-08T09:03:54;4.6;;;4.4;;
15500;SDS011;7852;52.228;5.990;2023-08-08T09:04:54;4.3;;;4.1;;
15500;SDS011;7852;52.228;5.990;2023-08-08T09:05:54;4.3;;;4.1;;
15500;SDS011;7852;52.228;5.990;2023-08-08T09:06:54;4.4;;;4.3;;
15500;SDS011;7852;52.228;5.990;2023-08-08T09:07:54;5.3;;;4.9;;
15500;SDS011;7852;52.228;5.990;2023-08-08T09:08:54;4.9;;;4.6;;
15500;SDS011;7852;52.228;5.990;2023-08-08T09:09:54;4.7;;;4.5;;
15500;SDS011;7852;52.228;5.990;2023-08-08T09:10:54;4.9;;;4.7;;
15500;SDS011;7852;52.228;5.990;2023-08-08T09:11:54;4.7;;;4.4;;
15500;SDS011;7852;52.228;5.990;2023-08-08T09:12:54;5;;;4.7;;
15500;SDS011;7852;52.228;5.990;2023-08-08T09:13:54;4.6;;;4.4;;
15500;SDS011;7852;52.228;5.990;2023-08-08T09:14:54;4.7;;;4.5;;
15500;SDS011;7852;52.228;5.990;2023-08-08T09:15:54;4.5;;;4.3;;
15500;SDS011;7852;52.228;5.990;2023-08-08T09:16:54;4.6;;;4.4;;
15500;SDS011;7852;52.228;5.990;2023-08-08T09:17:54;5.3;;;5;;
15500;SDS011;7852;52.228;5.990;2023-08-08T09:18:54;5.3;;;4.9;;
15500;SDS011;7852;52.228;5.990;2023-08-08T09:19:54;5.5;;;5.2;;
15500;SDS011;7852;52.228;5.990;2023-08-08T09:20:54;5;;;4.6;;
15500;SDS011;7852;52.228;5.990;2023-08-08T09:21:54;4.5;;;4.2;;
15500;SDS011;7852;52.228;5.990;2023-08-08T09:22:54;4.6;;;4.3;;
15500;SDS011;7852;52.228;5.990;2023-08-08T09:23:54;4.7;;;4.4;;
15500;SDS011;7852;52.228;5.990;2023-08-08T09:24:54;4.8;;;4.7;;
15500;SDS011;7852;52.228;5.990;2023-08-08T09:25:54;4.4;;;4.2;;
15500;SDS011;7852;52.228;5.990;2023-08-08T09:26:54;5.9;;;5.4;;
15500;SDS011;7852;52.228;5.990;2023-08-08T09:27:58;4.9;;;4.6;;
15500;SDS011;7852;52.228;5.990;2023-08-08T09:28:54;4.9;;;4.6;;
15500;SDS011;7852;52.228;5.990;2023-08-08T09:33:22;7;;;6.6;;
15500;SDS011;7852;52.228;5.990;2023-08-08T09:33:22;30.5;;;23.3;;
15500;SDS011;7852;52.228;5.990;2023-08-08T09:33:57;4.6;;;4.5;;
15500;SDS011;7852;52.228;5.990;2023-08-08T09:34:55;5.8;;;5.5;;
15500;SDS011;7852;52.228;5.990;2023-08-08T09:35:54;5.8;;;5.4;;
15500;SDS011;7852;52.228;5.990;2023-08-08T09:36:54;7.6;;;7.3;;
15500;SDS011;7852;52.228;5.990;2023-08-08T09:37:54;6.6;;;6.3;;
15500;SDS011;7852;52.228;5.990;2023-08-08T09:38:54;5.1;;;4.8;;
15500;SDS011;7852;52.228;5.990;2023-08-08T09:39:55;6.6;;;6.4;;
15500;SDS011;7852;52.228;5.990;2023-08-08T09:40:54;6.6;;;6.4;;
15500;SDS011;7852;52.228;5.990;2023-08-08T09:41:55;7.9;;;7.5;;
15500;SDS011;7852;52.228;5.990;2023-08-08T09:42:56;7.6;;;7.1;;
15500;SDS011;7852;52.228;5.990;2023-08-08T09:43:58;8;;;7.3;;
15500;SDS011;7852;52.228;5.990;2023-08-08T09:44:57;6.7;;;6.5;;
15500;SDS011;7852;52.228;5.990;2023-08-08T09:45:58;7.5;;;7.1;;
15500;SDS011;7852;52.228;5.990;2023-08-08T09:46:57;7.7;;;7.5;;
15500;SDS011;7852;52.228;5.990;2023-08-08T09:47:57;7.2;;;6.9;;
15500;SDS011;7852;52.228;5.990;2023-08-08T09:48:58;7.1;;;6.9;;
15500;SDS011;7852;52.228;5.990;2023-08-08T09:49:57;7.2;;;7;;
15500;SDS011;7852;52.228;5.990;2023-08-08T09:50:59;6.8;;;6.5;;
15500;SDS011;7852;52.228;5.990;2023-08-08T09:52:02;6.6;;;6.3;;
15500;SDS011;7852;52.228;5.990;2023-08-08T09:53:03;7.1;;;6.9;;
15500;SDS011;7852;52.228;5.990;2023-08-08T09:54:04;6.8;;;6.5;;
15500;SDS011;7852;52.228;5.990;2023-08-08T09:55:04;6.7;;;6.3;;
15500;SDS011;7852;52.228;5.990;2023-08-08T09:56:04;6.8;;;6.5;;
15500;SDS011;7852;52.228;5.990;2023-08-08T09:57:04;6.1;;;5.9;;
15500;SDS011;7852;52.228;5.990;2023-08-08T09:58:07;5.6;;;5.3;;
15500;SDS011;7852;52.228;5.990;2023-08-08T09:59:06;6.4;;;6.1;;
15500;SDS011;7852;52.228;5.990;2023-08-08T10:00:07;7.2;;;6.9;;
15500;SDS011;7852;52.228;5.990;2023-08-08T10:01:09;6.5;;;6.2;;
15500;SDS011;7852;52.228;5.990;2023-08-08T10:02:09;7.4;;;7.2;;
15500;SDS011;7852;52.228;5.990;2023-08-08T10:03:09;6.9;;;6.7;;
15500;SDS011;7852;52.228;5.990;2023-08-08T10:04:09;6.5;;;6.2;;
15500;SDS011;7852;52.228;5.990;2023-08-08T10:05:13;6.7;;;6.4;;
15500;SDS011;7852;52.228;5.990;2023-08-08T10:06:13;6.8;;;6.6;;
15500;SDS011;7852;52.228;5.990;2023-08-08T10:07:13;6.1;;;5.8;;
15500;SDS011;7852;52.228;5.990;2023-08-08T10:08:14;7.2;;;7;;
15500;SDS011;7852;52.228;5.990;2023-08-08T10:09:15;7.4;;;7.2;;
15500;SDS011;7852;52.228;5.990;2023-08-08T10:10:14;6.6;;;6.2;;
15500;SDS011;7852;52.228;5.990;2023-08-08T10:11:14;6.7;;;6.4;;
15500;SDS011;7852;52.228;5.990;2023-08-08T10:12:15;6.4;;;6.2;;
15500;SDS011;7852;52.228;5.990;2023-08-08T10:13:18;7;;;6.7;;
15500;SDS011;7852;52.228;5.990;2023-08-08T10:14:16;6.5;;;6.2;;
15500;SDS011;7852;52.228;5.990;2023-08-08T10:15:16;6.9;;;6.7;;
15500;SDS011;7852;52.228;5.990;2023-08-08T10:16:18;6.9;;;6.6;;
15500;SDS011;7852;52.228;5.990;2023-08-08T10:17:18;6.6;;;6.4;;
15500;SDS011;7852;52.228;5.990;2023-08-08T10:18:20;6.8;;;6.5;;
15500;SDS011;7852;52.228;5.990;2023-08-08T10:19:21;6.3;;;6.1;;
15500;SDS011;7852;52.228;5.990;2023-08-08T10:20:26;5.9;;;5.7;;
15500;SDS011;7852;52.228;5.990;2023-08-08T10:21:27;5.2;;;5;;
15500;SDS011;7852;52.228;5.990;2023-08-08T10:22:27;5.7;;;5.5;;
15500;SDS011;7852;52.228;5.990;2023-08-08T10:23:34;6;;;5.8;;
15500;SDS011;7852;52.228;5.990;2023-08-08T10:24:32;6;;;5.8;;
15500;SDS011;7852;52.228;5.990;2023-08-08T10:25:31;5.3;;;5.1;;
15500;SDS011;7852;52.228;5.990;2023-08-08T10:26:50;5.4;;;5.2;;
15500;SDS011;7852;52.228;5.990;2023-08-08T10:27:34;4.8;;;4.6;;
15500;SDS011;7852;52.228;5.990;2023-08-08T10:28:35;5.3;;;5.1;;
15500;SDS011;7852;52.228;5.990;2023-08-08T10:29:38;5.1;;;4.8;;
15500;SDS011;7852;52.228;5.990;2023-08-08T10:30:44;5.8;;;5.6;;
15500;SDS011;7852;52.228;5.990;2023-08-08T10:31:37;6.1;;;5.9;;
15500;SDS011;7852;52.228;5.990;2023-08-08T10:32:40;7.1;;;6.8;;
15500;SDS011;7852;52.228;5.990;2023-08-08T10:33:40;7.1;;;6.8;;
15500;SDS011;7852;52.228;5.990;2023-08-08T10:34:40;6.8;;;6.5;;
15500;SDS011;7852;52.228;5.990;2023-08-08T10:35:39;7.3;;;7.1;;
15500;SDS011;7852;52.228;5.990;2023-08-08T10:36:44;6.7;;;6.4;;
15500;SDS011;7852;52.228;5.990;2023-08-08T10:37:40;6.9;;;6.7;;
15500;SDS011;7852;52.228;5.990;2023-08-08T10:38:43;7;;;6.7;;
15500;SDS011;7852;52.228;5.990;2023-08-08T10:39:50;6.5;;;6.3;;
15500;SDS011;7852;52.228;5.990;2023-08-08T10:40:43;6.6;;;6.3;;
15500;SDS011;7852;52.228;5.990;2023-08-08T10:41:46;7.1;;;6.9;;
15500;SDS011;7852;52.228;5.990;2023-08-08T10:42:46;5.9;;;5.7;;
15500;SDS011;7852;52.228;5.990;2023-08-08T10:43:47;6.5;;;6.3;;
15500;SDS011;7852;52.228;5.990;2023-08-08T10:44:50;6.5;;;6.3;;
15500;SDS011;7852;52.228;5.990;2023-08-08T10:45:46;6.4;;;6.2;;
15500;SDS011;7852;52.228;5.990;2023-08-08T10:46:46;6.8;;;6.3;;
15500;SDS011;7852;52.228;5.990;2023-08-08T10:47:46;6.6;;;6.4;;
15500;SDS011;7852;52.228;5.990;2023-08-08T10:48:50;6.5;;;6.3;;
15500;SDS011;7852;52.228;5.990;2023-08-08T10:49:56;6.3;;;6.1;;
15500;SDS011;7852;52.228;5.990;2023-08-08T10:50:47;6.5;;;6.3;;
15500;SDS011;7852;52.228;5.990;2023-08-08T10:51:48;7.1;;;6.8;;
15500;SDS011;7852;52.228;5.990;2023-08-08T10:52:51;6.6;;;6.3;;
15500;SDS011;7852;52.228;5.990;2023-08-08T10:53:50;6.2;;;6;;
15500;SDS011;7852;52.228;5.990;2023-08-08T10:54:52;6.7;;;6.4;;
15500;SDS011;7852;52.228;5.990;2023-08-08T10:55:57;6.2;;;6;;
15500;SDS011;7852;52.228;5.990;2023-08-08T10:56:52;6.8;;;6.6;;
15500;SDS011;7852;52.228;5.990;2023-08-08T10:57:53;6.4;;;6.2;;
15500;SDS011;7852;52.228;5.990;2023-08-08T10:58:53;6.1;;;5.9;;
15500;SDS011;7852;52.228;5.990;2023-08-08T10:59:53;5.8;;;5.5;;
15500;SDS011;7852;52.228;5.990;2023-08-08T11:00:54;5.9;;;5.5;;
15500;SDS011;7852;52.228;5.990;2023-08-08T11:01:55;5.8;;;5.6;;
15500;SDS011;7852;52.228;5.990;2023-08-08T11:02:55;5.3;;;5.1;;
15500;SDS011;7852;52.228;5.990;2023-08-08T11:03:55;5.2;;;5;;
15500;SDS011;7852;52.228;5.990;2023-08-08T11:04:56;5.1;;;4.9;;
15500;SDS011;7852;52.228;5.990;2023-08-08T11:05:58;5.3;;;5;;
15500;SDS011;7852;52.228;5.990;2023-08-08T11:06:59;5.2;;;4.9;;
15500;SDS011;7852;52.228;5.990;2023-08-08T11:07:59;5.4;;;5.2;;
15500;SDS011;7852;52.228;5.990;2023-08-08T11:08:59;5.4;;;5.2;;
15500;SDS011;7852;52.228;5.990;2023-08-08T11:10:00;5.5;;;5.3;;
15500;SDS011;7852;52.228;5.990;2023-08-08T11:11:01;4.7;;;4.6;;
15500;SDS011;7852;52.228;5.990;2023-08-08T11:12:01;5.5;;;5.3;;
15500;SDS011;7852;52.228;5.990;2023-08-08T11:13:02;5.2;;;5;;
15500;SDS011;7852;52.228;5.990;2023-08-08T11:14:08;5.2;;;5;;
15500;SDS011;7852;52.228;5.990;2023-08-08T11:15:02;5;;;4.8;;
15500;SDS011;7852;52.228;5.990;2023-08-08T11:16:04;5.5;;;5.3;;
15500;SDS011;7852;52.228;5.990;2023-08-08T11:17:03;5.9;;;5.6;;
15500;SDS011;7852;52.228;5.990;2023-08-08T11:18:04;5.6;;;5.3;;
15500;SDS011;7852;52.228;5.990;2023-08-08T11:19:05;5.7;;;5.5;;
15500;SDS011;7852;52.228;5.990;2023-08-08T11:20:05;4.7;;;4.6;;
15500;SDS011;7852;52.228;5.990;2023-08-08T11:21:09;5.7;;;5.4;;
15500;SDS011;7852;52.228;5.990;2023-08-08T11:22:08;5.1;;;5;;
15500;SDS011;7852;52.228;5.990;2023-08-08T11:23:06;5.4;;;5.2;;
15500;SDS011;7852;52.228;5.990;2023-08-08T11:24:06;5;;;4.9;;
15500;SDS011;7852;52.228;5.990;2023-08-08T11:25:07;5.7;;;5.4;;
15500;SDS011;7852;52.228;5.990;2023-08-08T11:26:07;4.7;;;4.6;;
15500;SDS011;7852;52.228;5.990;2023-08-08T11:27:09;5.3;;;5.1;;
15500;SDS011;7852;52.228;5.990;2023-08-08T11:28:09;5.4;;;5.2;;
15500;SDS011;7852;52.228;5.990;2023-08-08T11:29:09;5.4;;;5.3;;
15500;SDS011;7852;52.228;5.990;2023-08-08T11:30:10;7.3;;;6.9;;
15500;SDS011;7852;52.228;5.990;2023-08-08T11:31:12;5.8;;;5.6;;
15500;SDS011;7852;52.228;5.990;2023-08-08T11:32:13;5.9;;;5.7;;
15500;SDS011;7852;52.228;5.990;2023-08-08T11:33:14;5.6;;;5.4;;
15500;SDS011;7852;52.228;5.990;2023-08-08T11:34:15;5.7;;;5.5;;
15500;SDS011;7852;52.228;5.990;2023-08-08T11:35:15;5.9;;;5.6;;
15500;SDS011;7852;52.228;5.990;2023-08-08T11:36:14;6.3;;;6.1;;
15500;SDS011;7852;52.228;5.990;2023-08-08T11:37:15;5.4;;;5.3;;
15500;SDS011;7852;52.228;5.990;2023-08-08T11:38:16;6.3;;;5.8;;
15500;SDS011;7852;52.228;5.990;2023-08-08T11:39:19;5.7;;;5.5;;
15500;SDS011;7852;52.228;5.990;2023-08-08T11:40:22;5.7;;;5.4;;
15500;SDS011;7852;52.228;5.990;2023-08-08T11:41:22;5.8;;;5.5;;
15500;SDS011;7852;52.228;5.990;2023-08-08T11:42:24;5.7;;;5.6;;
15500;SDS011;7852;52.228;5.990;2023-08-08T11:43:24;5.1;;;4.9;;
15500;SDS011;7852;52.228;5.990;2023-08-08T11:44:24;6.2;;;5.6;;
15500;SDS011;7852;52.228;5.990;2023-08-08T11:45:25;5.2;;;4.9;;
15500;SDS011;7852;52.228;5.990;2023-08-08T11:46:28;4.9;;;4.7;;
15500;SDS011;7852;52.228;5.990;2023-08-08T11:47:28;4.6;;;4.4;;
15500;SDS011;7852;52.228;5.990;2023-08-08T11:48:32;4.9;;;4.7;;
15500;SDS011;7852;52.228;5.990;2023-08-08T11:49:31;4.9;;;4.7;;
15500;SDS011;7852;52.228;5.990;2023-08-08T11:50:34;5.3;;;5;;
15500;SDS011;7852;52.228;5.990;2023-08-08T11:51:34;4.9;;;4.7;;
15500;SDS011;7852;52.228;5.990;2023-08-08T11:52:34;5;;;4.8;;
15500;SDS011;7852;52.228;5.990;2023-08-08T11:53:35;5.1;;;4.9;;
15500;SDS011;7852;52.228;5.990;2023-08-08T11:54:36;4.5;;;4.4;;
15500;SDS011;7852;52.228;5.990;2023-08-08T11:55:35;5.1;;;4.9;;
15500;SDS011;7852;52.228;5.990;2023-08-08T11:56:36;5.5;;;5.3;;
15500;SDS011;7852;52.228;5.990;2023-08-08T11:57:37;4.7;;;4.6;;
15500;SDS011;7852;52.228;5.990;2023-08-08T11:58:37;5.1;;;4.9;;
15500;SDS011;7852;52.228;5.990;2023-08-08T11:59:38;5;;;4.8;;
15500;SDS011;7852;52.228;5.990;2023-08-08T12:00:38;5.5;;;5.1;;
15500;SDS011;7852;52.228;5.990;2023-08-08T12:01:38;4.8;;;4.6;;
15500;SDS011;7852;52.228;5.990;2023-08-08T12:02:38;5;;;4.7;;
15500;SDS011;7852;52.228;5.990;2023-08-08T12:03:38;5.7;;;5.5;;
15500;SDS011;7852;52.228;5.990;2023-08-08T12:04:38;4.7;;;4.5;;
15500;SDS011;7852;52.228;5.990;2023-08-08T12:05:39;4.8;;;4.6;;
15500;SDS011;7852;52.228;5.990;2023-08-08T12:06:39;4.5;;;4.4;;
15500;SDS011;7852;52.228;5.990;2023-08-08T12:07:39;4.9;;;4.7;;
15500;SDS011;7852;52.228;5.990;2023-08-08T12:08:40;5.2;;;5;;
15500;SDS011;7852;52.228;5.990;2023-08-08T12:09:40;4.7;;;4.5;;
15500;SDS011;7852;52.228;5.990;2023-08-08T12:10:40;5;;;4.8;;
15500;SDS011;7852;52.228;5.990;2023-08-08T12:11:42;4.7;;;4.4;;
15500;SDS011;7852;52.228;5.990;2023-08-08T12:12:44;7.4;;;5.1;;
15500;SDS011;7852;52.228;5.990;2023-08-08T12:13:47;5.1;;;4.8;;
15500;SDS011;7852;52.228;5.990;2023-08-08T12:14:51;4.7;;;4.5;;
15500;SDS011;7852;52.228;5.990;2023-08-08T12:15:55;5.4;;;5.2;;
15500;SDS011;7852;52.228;5.990;2023-08-08T12:16:55;4.9;;;4.8;;
15500;SDS011;7852;52.228;5.990;2023-08-08T12:17:54;5.5;;;5.1;;
15500;SDS011;7852;52.228;5.990;2023-08-08T12:18:54;5.6;;;5.3;;
15500;SDS011;7852;52.228;5.990;2023-08-08T12:19:58;5.4;;;5.2;;
15500;SDS011;7852;52.228;5.990;2023-08-08T12:20:56;5;;;4.8;;
15500;SDS011;7852;52.228;5.990;2023-08-08T12:21:55;5.6;;;5.3;;
15500;SDS011;7852;52.228;5.990;2023-08-08T12:22:55;5.6;;;5.3;;
15500;SDS011;7852;52.228;5.990;2023-08-08T12:23:56;5.1;;;4.8;;
15500;SDS011;7852;52.228;5.990;2023-08-08T12:24:56;5.5;;;5.2;;
15500;SDS011;7852;52.228;5.990;2023-08-08T12:26:03;5.1;;;4.9;;
15500;SDS011;7852;52.228;5.990;2023-08-08T12:27:02;5.1;;;4.7;;
15500;SDS011;7852;52.228;5.990;2023-08-08T12:28:05;5.7;;;5.5;;